Atlanta, Georgia
Traffic Map
Current Weather Conditions
Atlanta, Georgia
Clear
Clear
52°
Feels Like: 52°
Wind Chill: 52° Ceiling: Unl
Heat Index: 52° Visibility: 10mi
Dew Point: 24° Wind: 5mph
Humidity: 34% Direction: 280° (W)
Pressure: 30.15in Gusts: 0mph
Raw Report DataKATL 112252Z 28004KT 10SM CLR 11/M04 A3015 RMK AO2 SLP215 T01111044
Traffic Incident Summary
Active as of:
Severity:
Category:
InformationThere was an issue retrieving the traffic information for this location. Please try a different location or try again shortly.
Advertisements
Track Severe Weather on mobile